createdAt,value
2019-03-10T00:00:35.314Z,0.00
2019-03-10T00:01:35.260Z,0.00
2019-03-10T00:02:35.263Z,0.00
2019-03-10T00:03:35.233Z,0.00
2019-03-10T00:04:35.199Z,0.00
2019-03-10T00:05:35.220Z,0.00
2019-03-10T00:06:35.166Z,0.00
2019-03-10T00:07:35.136Z,0.00
2019-03-10T00:08:35.114Z,0.00
2019-03-10T00:09:35.100Z,0.00
2019-03-10T00:10:35.079Z,0.00
2019-03-10T00:11:35.076Z,0.00
2019-03-10T00:12:35.037Z,0.00
2019-03-10T00:13:35.025Z,0.00
2019-03-10T00:14:35.013Z,0.00
2019-03-10T00:15:34.974Z,0.00
2019-03-10T00:16:34.955Z,0.00
2019-03-10T00:17:34.945Z,0.00
2019-03-10T00:18:34.917Z,0.00
2019-03-10T00:19:36.742Z,0.00
2019-03-10T00:20:34.891Z,0.00
2019-03-10T00:21:34.874Z,0.00
2019-03-10T00:22:34.835Z,0.00
2019-03-10T00:23:34.812Z,0.00
2019-03-10T00:24:34.791Z,0.00
2019-03-10T00:25:34.789Z,0.00
2019-03-10T00:26:34.759Z,0.00
2019-03-10T00:27:34.751Z,0.00
2019-03-10T00:28:34.720Z,0.00
2019-03-10T00:29:34.690Z,0.00
2019-03-10T00:30:34.682Z,0.00
2019-03-10T00:31:34.661Z,0.00
2019-03-10T00:32:34.651Z,0.00
2019-03-10T00:33:34.610Z,0.00
2019-03-10T00:34:34.592Z,0.00
2019-03-10T00:35:34.570Z,0.00
2019-03-10T00:36:34.565Z,0.00
2019-03-10T00:37:34.555Z,0.00
2019-03-10T00:38:34.548Z,0.00
2019-03-10T00:39:34.490Z,0.00
2019-03-10T00:40:34.479Z,0.00
2019-03-10T00:41:34.449Z,0.00
2019-03-10T00:42:34.430Z,0.00
2019-03-10T00:43:34.417Z,0.00
2019-03-10T00:44:34.408Z,0.00
2019-03-10T00:45:34.378Z,0.00
2019-03-10T00:46:34.370Z,0.00
2019-03-10T00:47:34.330Z,0.00
2019-03-10T00:48:34.308Z,0.00
2019-03-10T00:49:34.306Z,0.00
2019-03-10T00:50:34.269Z,0.00
2019-03-10T00:51:34.483Z,0.00
2019-03-10T00:52:34.225Z,0.00
2019-03-10T00:53:34.210Z,0.00
2019-03-10T00:54:34.204Z,0.00
2019-03-10T00:55:34.183Z,0.00
2019-03-10T00:56:34.148Z,0.00
2019-03-10T00:57:34.145Z,0.00
2019-03-10T00:58:34.110Z,0.00
2019-03-10T00:59:34.086Z,0.00
2019-03-10T01:00:34.067Z,0.00
2019-03-10T01:01:34.047Z,0.00
2019-03-10T01:02:34.025Z,0.00
2019-03-10T01:03:34.022Z,0.00
2019-03-10T01:04:33.983Z,0.00
2019-03-10T01:05:33.965Z,0.00
2019-03-10T01:06:33.946Z,0.00
2019-03-10T01:07:33.947Z,0.00
2019-03-10T01:08:33.902Z,0.00
2019-03-10T01:09:33.899Z,0.00
2019-03-10T01:10:33.860Z,0.00
2019-03-10T01:11:33.841Z,0.00
2019-03-10T01:12:33.822Z,0.00
2019-03-10T01:13:33.819Z,0.00
2019-03-10T01:14:33.785Z,0.00
2019-03-10T01:15:33.759Z,0.00
2019-03-10T01:16:33.744Z,0.00
2019-03-10T01:17:33.734Z,0.00
2019-03-10T01:18:33.717Z,0.00
2019-03-10T01:19:33.680Z,0.00
2019-03-10T01:20:33.670Z,0.00
2019-03-10T01:21:33.636Z,0.00
2019-03-10T01:22:33.623Z,0.00
2019-03-10T01:23:33.600Z,0.00
2019-03-10T01:24:33.608Z,0.00
2019-03-10T01:25:33.555Z,0.00
2019-03-10T01:26:33.604Z,0.00
2019-03-10T01:27:33.521Z,0.00
2019-03-10T01:28:33.495Z,0.00
2019-03-10T01:29:33.500Z,0.00
2019-03-10T01:30:33.457Z,0.00
2019-03-10T01:31:33.453Z,0.00
2019-03-10T01:32:33.416Z,0.00
2019-03-10T01:33:33.394Z,0.00
2019-03-10T01:34:33.373Z,0.00
2019-03-10T01:35:33.357Z,0.00
2019-03-10T01:36:33.335Z,0.00
2019-03-10T01:37:33.333Z,0.00
2019-03-10T01:38:33.297Z,0.00
2019-03-10T01:39:33.277Z,0.00
2019-03-10T01:40:33.252Z,0.00
2019-03-10T01:41:33.235Z,0.00
2019-03-10T01:42:33.216Z,0.00
2019-03-10T01:43:33.209Z,0.00
2019-03-10T01:44:33.179Z,0.00
2019-03-10T01:45:33.158Z,0.00
2019-03-10T01:46:33.133Z,0.00
2019-03-10T01:47:33.114Z,0.00
2019-03-10T01:48:33.113Z,0.00
2019-03-10T01:49:33.071Z,0.00
2019-03-10T01:50:33.052Z,0.00
2019-03-10T01:51:33.031Z,0.00
2019-03-10T01:52:33.012Z,0.00
2019-03-10T01:53:32.992Z,0.00
2019-03-10T01:54:32.994Z,0.00
2019-03-10T01:55:32.949Z,0.00
2019-03-10T01:56:32.933Z,0.00
2019-03-10T01:57:32.920Z,0.00
2019-03-10T01:58:32.891Z,0.00
2019-03-10T01:59:32.889Z,0.00
2019-03-10T02:00:32.869Z,0.00
2019-03-10T02:01:32.829Z,0.00
2019-03-10T02:02:32.816Z,0.00
2019-03-10T02:03:32.801Z,0.00
2019-03-10T02:04:32.770Z,0.00
2019-03-10T02:05:32.764Z,0.00
2019-03-10T02:06:32.726Z,0.00
2019-03-10T02:07:32.740Z,0.00
2019-03-10T02:08:32.687Z,0.00
2019-03-10T02:09:32.688Z,0.00
2019-03-10T02:10:32.647Z,0.00
2019-03-10T02:11:32.624Z,0.00
2019-03-10T02:12:32.609Z,0.00
2019-03-10T02:13:32.606Z,0.00
2019-03-10T02:14:32.566Z,0.00
2019-03-10T02:15:32.548Z,0.00
2019-03-10T02:16:32.530Z,0.00
2019-03-10T02:17:32.509Z,0.00
2019-03-10T02:18:32.506Z,0.00
2019-03-10T02:19:32.467Z,0.00
2019-03-10T02:20:32.452Z,0.00
2019-03-10T02:21:32.479Z,0.00
2019-03-10T02:22:32.408Z,0.00
2019-03-10T02:23:32.403Z,0.00
2019-03-10T02:24:32.375Z,0.00
2019-03-10T02:25:32.364Z,0.00
2019-03-10T02:26:32.324Z,0.00
2019-03-10T02:27:32.310Z,0.00
2019-03-10T02:28:32.287Z,0.00
2019-03-10T02:29:32.284Z,0.00
2019-03-10T02:30:32.246Z,0.00
2019-03-10T02:31:32.236Z,0.00
2019-03-10T02:32:32.223Z,0.00
2019-03-10T02:33:32.199Z,0.00
2019-03-10T02:34:32.189Z,0.00
2019-03-10T02:35:32.150Z,0.00
2019-03-10T02:36:32.123Z,0.00
2019-03-10T02:37:32.102Z,0.00
2019-03-10T02:38:32.099Z,0.00
2019-03-10T02:39:32.081Z,0.00
2019-03-10T02:40:32.064Z,0.00
2019-03-10T02:41:32.038Z,0.00
2019-03-10T02:42:32.010Z,0.00
2019-03-10T02:43:31.984Z,0.00
2019-03-10T02:44:31.981Z,0.00
2019-03-10T02:45:31.942Z,0.00
2019-03-10T02:46:31.922Z,0.00
2019-03-10T02:47:31.897Z,0.00
2019-03-10T02:48:31.883Z,0.00
2019-03-10T02:49:31.860Z,0.00
2019-03-10T02:50:31.861Z,0.00
2019-03-10T02:51:31.819Z,0.00
2019-03-10T02:52:31.802Z,0.00
2019-03-10T02:53:31.784Z,0.00
2019-03-10T02:54:31.763Z,0.00
2019-03-10T02:55:31.757Z,0.00
2019-03-10T02:56:31.717Z,0.00
2019-03-10T02:57:31.703Z,0.00
2019-03-10T02:58:31.695Z,0.00
2019-03-10T02:59:31.661Z,0.00
2019-03-10T03:00:31.663Z,0.00
2019-03-10T03:01:31.637Z,0.00
2019-03-10T03:02:31.595Z,0.00
2019-03-10T03:03:31.593Z,0.00
2019-03-10T03:04:31.582Z,0.00
2019-03-10T03:05:31.541Z,0.00
2019-03-10T03:06:31.520Z,0.00
2019-03-10T03:07:31.495Z,0.00
2019-03-10T03:08:31.493Z,0.00
2019-03-10T03:09:31.454Z,0.00
2019-03-10T03:10:31.434Z,0.00
2019-03-10T03:11:31.416Z,0.00
2019-03-10T03:12:31.395Z,0.00
2019-03-10T03:13:31.397Z,0.00
2019-03-10T03:14:31.355Z,0.00
2019-03-10T03:15:31.332Z,0.00
2019-03-10T03:16:31.309Z,0.00
2019-03-10T03:17:31.298Z,0.00
2019-03-10T03:18:31.289Z,0.00
2019-03-10T03:19:31.253Z,0.00
2019-03-10T03:20:31.266Z,0.00
2019-03-10T03:21:42.455Z,0.00
2019-03-10T03:22:31.204Z,0.00
2019-03-10T03:23:31.170Z,0.00
2019-03-10T03:24:31.161Z,0.00
2019-03-10T03:25:31.147Z,0.00
2019-03-10T03:26:31.151Z,0.00
2019-03-10T03:27:31.095Z,0.00
2019-03-10T03:28:31.087Z,0.00
2019-03-10T03:29:31.050Z,0.00
2019-03-10T03:30:31.039Z,0.00
2019-03-10T03:31:31.011Z,0.00
2019-03-10T03:32:31.029Z,0.00
2019-03-10T03:33:30.969Z,0.00
2019-03-10T03:34:30.955Z,0.00
2019-03-10T03:35:30.928Z,0.00
2019-03-10T03:36:30.923Z,0.00
2019-03-10T03:37:30.901Z,0.00
2019-03-10T03:38:30.895Z,0.00
2019-03-10T03:39:30.847Z,0.00
2019-03-10T03:40:30.822Z,0.00
2019-03-10T03:41:30.804Z,0.00
2019-03-10T03:42:30.780Z,0.00
2019-03-10T03:43:30.792Z,0.00
2019-03-10T03:44:30.763Z,0.00
2019-03-10T03:45:30.722Z,0.00
2019-03-10T03:46:30.710Z,0.00
2019-03-10T03:47:30.697Z,0.00
2019-03-10T03:48:30.668Z,0.00
2019-03-10T03:49:30.658Z,0.00
2019-03-10T03:50:30.615Z,0.00
2019-03-10T03:51:30.593Z,0.00
2019-03-10T03:52:30.573Z,0.00
2019-03-10T03:53:30.552Z,0.00
2019-03-10T03:54:30.535Z,0.00
2019-03-10T03:55:30.527Z,0.00
2019-03-10T03:56:30.509Z,0.00
2019-03-10T03:57:30.480Z,0.00
2019-03-10T03:58:30.453Z,0.00
2019-03-10T03:59:30.437Z,0.00
2019-03-10T04:00:30.425Z,0.00
2019-03-10T04:01:30.409Z,0.00
2019-03-10T04:02:30.365Z,0.00
2019-03-10T04:03:30.345Z,0.00
2019-03-10T04:04:30.323Z,0.00
2019-03-10T04:05:30.305Z,0.00
2019-03-10T04:06:30.281Z,0.00
2019-03-10T04:07:30.340Z,0.00
2019-03-10T04:08:30.239Z,0.00
2019-03-10T04:09:30.223Z,0.00
2019-03-10T04:10:30.199Z,0.00
2019-03-10T04:11:30.179Z,0.00
2019-03-10T04:12:30.158Z,0.00
2019-03-10T04:13:30.164Z,0.00
2019-03-10T04:14:30.121Z,0.00
2019-03-10T04:15:30.103Z,0.00
2019-03-10T04:16:30.071Z,0.00
2019-03-10T04:17:30.050Z,0.00
2019-03-10T04:18:30.052Z,0.00
2019-03-10T04:19:30.024Z,0.00
2019-03-10T04:20:30.002Z,0.00
2019-03-10T04:21:29.970Z,0.00
2019-03-10T04:22:29.948Z,0.00
2019-03-10T04:23:29.926Z,0.00
2019-03-10T04:24:29.920Z,0.00
2019-03-10T04:25:29.889Z,0.00
2019-03-10T04:26:30.100Z,0.00
2019-03-10T04:27:29.844Z,0.00
2019-03-10T04:28:29.923Z,0.00
2019-03-10T04:29:29.801Z,0.00
2019-03-10T04:30:29.779Z,0.00
2019-03-10T04:31:29.760Z,0.00
2019-03-10T04:32:29.763Z,0.00
2019-03-10T04:33:29.804Z,0.00
2019-03-10T04:34:29.703Z,0.00
2019-03-10T04:35:29.673Z,0.00
2019-03-10T04:36:29.652Z,0.00
2019-03-10T04:37:29.651Z,0.00
2019-03-10T04:38:29.610Z,0.00
2019-03-10T04:39:29.590Z,0.00
2019-03-10T04:40:29.579Z,0.00
2019-03-10T04:41:29.548Z,0.00
2019-03-10T04:42:29.528Z,0.00
2019-03-10T04:43:29.520Z,0.00
2019-03-10T04:44:29.486Z,0.00
2019-03-10T04:45:29.483Z,0.00
2019-03-10T04:46:29.464Z,0.00
2019-03-10T04:47:29.422Z,0.00
2019-03-10T04:48:29.405Z,0.00
2019-03-10T04:49:29.404Z,0.00
2019-03-10T04:50:29.357Z,0.00
2019-03-10T04:51:29.337Z,0.00
2019-03-10T04:52:29.320Z,0.00
2019-03-10T04:53:29.313Z,0.00
2019-03-10T04:54:29.276Z,0.00
2019-03-10T04:55:29.281Z,0.00
2019-03-10T04:56:29.234Z,0.00
2019-03-10T04:57:29.209Z,0.00
2019-03-10T04:58:29.202Z,0.00
2019-03-10T04:59:29.169Z,0.00
2019-03-10T05:00:29.149Z,0.00
2019-03-10T05:01:29.130Z,0.00
2019-03-10T05:02:29.103Z,0.00
2019-03-10T05:03:29.099Z,0.00
2019-03-10T05:04:31.444Z,0.00
2019-03-10T05:05:29.048Z,0.00
2019-03-10T05:06:29.036Z,0.00
2019-03-10T05:07:29.000Z,0.00
2019-03-10T05:08:28.984Z,0.00
2019-03-10T05:09:28.959Z,0.00
2019-03-10T05:10:28.941Z,0.00
2019-03-10T05:11:28.950Z,0.00
2019-03-10T05:12:28.896Z,0.00
2019-03-10T05:13:28.879Z,0.00
2019-03-10T05:14:28.854Z,0.00
2019-03-10T05:15:28.837Z,0.00
2019-03-10T05:16:28.810Z,0.00
2019-03-10T05:17:28.805Z,0.00
2019-03-10T05:18:28.790Z,0.00
2019-03-10T05:19:28.742Z,0.00
2019-03-10T05:20:28.725Z,0.00
2019-03-10T05:21:28.705Z,0.00
2019-03-10T05:22:28.684Z,0.00
2019-03-10T05:23:28.684Z,0.00
2019-03-10T05:24:28.643Z,0.00
2019-03-10T05:25:28.623Z,0.00
2019-03-10T05:26:28.603Z,0.00
2019-03-10T05:27:28.578Z,0.00
2019-03-10T05:28:28.561Z,0.00
2019-03-10T05:29:28.559Z,0.00
2019-03-10T05:30:28.519Z,0.00
2019-03-10T05:31:28.496Z,0.00
2019-03-10T05:32:28.481Z,0.00
2019-03-10T05:33:28.458Z,0.00
2019-03-10T05:34:28.448Z,0.00
2019-03-10T05:35:28.419Z,0.00
2019-03-10T05:36:28.385Z,0.00
2019-03-10T05:37:28.367Z,0.00
2019-03-10T05:38:28.353Z,0.00
2019-03-10T05:39:28.352Z,0.00
2019-03-10T05:40:28.307Z,0.00
2019-03-10T05:41:28.284Z,0.00
2019-03-10T05:42:28.263Z,4.00
2019-03-10T05:43:28.243Z,4.00
2019-03-10T05:44:28.221Z,4.00
2019-03-10T05:45:28.221Z,4.00
2019-03-10T05:46:28.181Z,4.00
2019-03-10T05:47:28.157Z,4.00
2019-03-10T05:48:28.137Z,4.00
2019-03-10T05:49:28.115Z,8.00
2019-03-10T05:50:28.097Z,12.00
2019-03-10T05:51:28.089Z,12.00
2019-03-10T05:52:28.054Z,12.00
2019-03-10T05:53:28.032Z,16.00
2019-03-10T05:54:28.015Z,12.00
2019-03-10T05:55:27.997Z,16.00
2019-03-10T05:56:27.981Z,20.00
2019-03-10T05:57:27.965Z,20.00
2019-03-10T05:58:27.927Z,24.00
2019-03-10T05:59:27.905Z,28.00
2019-03-10T06:00:27.906Z,32.00
2019-03-10T06:01:27.892Z,36.00
2019-03-10T06:02:27.899Z,44.00
2019-03-10T06:03:27.824Z,52.00
2019-03-10T06:04:27.801Z,56.00
2019-03-10T06:05:27.783Z,60.00
2019-03-10T06:06:27.765Z,60.00
2019-03-10T06:07:27.758Z,68.00
2019-03-10T06:08:27.718Z,72.00
2019-03-10T06:09:27.696Z,76.00
2019-03-10T06:10:27.675Z,76.00
2019-03-10T06:11:27.649Z,80.00
2019-03-10T06:12:27.661Z,76.00
2019-03-10T06:13:27.614Z,80.00
2019-03-10T06:14:27.592Z,84.00
2019-03-10T06:15:27.568Z,80.00
2019-03-10T06:16:27.552Z,80.00
2019-03-10T06:17:27.532Z,76.00
2019-03-10T06:18:27.529Z,84.00
2019-03-10T06:19:27.484Z,92.00
2019-03-10T06:20:27.461Z,104.00
2019-03-10T06:21:27.443Z,96.00
2019-03-10T06:22:27.421Z,104.00
2019-03-10T06:23:27.407Z,88.00
2019-03-10T06:24:27.390Z,68.00
2019-03-10T06:25:27.364Z,64.00
2019-03-10T06:26:27.339Z,80.00
2019-03-10T06:27:27.339Z,160.00
2019-03-10T06:28:27.296Z,268.00
2019-03-10T06:29:27.276Z,296.00
2019-03-10T06:30:27.253Z,272.00
2019-03-10T06:31:27.229Z,212.00
2019-03-10T06:32:27.228Z,160.00
2019-03-10T06:33:27.255Z,144.00
2019-03-10T06:34:27.173Z,160.00
2019-03-10T06:35:27.149Z,196.00
2019-03-10T06:36:27.128Z,232.00
2019-03-10T06:37:27.107Z,220.00
2019-03-10T06:38:27.100Z,204.00
2019-03-10T06:39:27.066Z,220.00
2019-03-10T06:40:32.086Z,176.00
2019-03-10T06:41:27.018Z,180.00
2019-03-10T06:42:27.018Z,332.00
2019-03-10T06:43:26.978Z,328.00
2019-03-10T06:44:26.977Z,300.00
2019-03-10T06:45:26.942Z,280.00
2019-03-10T06:46:26.915Z,276.00
2019-03-10T06:47:26.895Z,300.00
2019-03-10T06:48:26.886Z,288.00
2019-03-10T06:49:26.851Z,348.00
2019-03-10T06:50:26.827Z,432.00
2019-03-10T06:51:26.808Z,360.00
2019-03-10T06:52:26.787Z,296.00
2019-03-10T06:53:26.784Z,224.00
2019-03-10T06:54:26.760Z,196.00
2019-03-10T06:55:26.733Z,268.00
2019-03-10T06:56:26.697Z,348.00
2019-03-10T06:57:26.680Z,512.00
2019-03-10T06:58:26.685Z,452.00
2019-03-10T06:59:26.636Z,588.00
2019-03-10T07:00:26.620Z,620.00
2019-03-10T07:01:26.595Z,716.00
2019-03-10T07:02:26.577Z,552.00
2019-03-10T07:03:26.552Z,456.00
2019-03-10T07:04:26.553Z,300.00
2019-03-10T07:05:26.514Z,272.00
2019-03-10T07:06:26.492Z,304.00
2019-03-10T07:07:26.465Z,296.00
2019-03-10T07:08:26.447Z,336.00
2019-03-10T07:09:26.447Z,368.00
2019-03-10T07:10:26.419Z,564.00
2019-03-10T07:11:26.381Z,672.00
2019-03-10T07:12:26.359Z,688.00
2019-03-10T07:13:26.342Z,944.00
2019-03-10T07:14:26.340Z,820.00
2019-03-10T07:15:26.297Z,688.00
2019-03-10T07:16:26.277Z,380.00
2019-03-10T07:17:26.254Z,292.00
2019-03-10T07:18:26.234Z,260.00
2019-03-10T07:19:26.225Z,308.00
2019-03-10T07:20:26.193Z,384.00
2019-03-10T07:21:26.196Z,448.00
2019-03-10T07:22:26.154Z,584.00
2019-03-10T07:23:26.126Z,696.00
2019-03-10T07:24:26.116Z,708.00
2019-03-10T07:25:26.086Z,656.00
2019-03-10T07:26:26.063Z,532.00
2019-03-10T07:27:26.057Z,540.00
2019-03-10T07:28:26.037Z,772.00
2019-03-10T07:29:26.002Z,648.00
2019-03-10T07:30:25.977Z,748.00
2019-03-10T07:31:25.955Z,832.00
2019-03-10T07:32:25.944Z,788.00
2019-03-10T07:33:25.935Z,932.00
2019-03-10T07:34:25.910Z,1244.00
2019-03-10T07:35:25.870Z,1380.00
2019-03-10T07:36:25.861Z,968.00
2019-03-10T07:37:25.839Z,632.00
2019-03-10T07:38:25.811Z,588.00
2019-03-10T07:39:25.803Z,676.00
2019-03-10T07:40:25.783Z,1020.00
2019-03-10T07:41:25.745Z,1008.00
2019-03-10T07:42:25.730Z,1188.00
2019-03-10T07:43:25.706Z,1152.00
2019-03-10T07:44:25.702Z,1080.00
2019-03-10T07:45:25.663Z,844.00
2019-03-10T07:46:25.656Z,800.00
2019-03-10T07:47:25.627Z,904.00
2019-03-10T07:48:25.616Z,1328.00
2019-03-10T07:49:25.588Z,1388.00
2019-03-10T07:50:25.564Z,1268.00
2019-03-10T07:51:25.559Z,1280.00
2019-03-10T07:52:25.518Z,1888.00
2019-03-10T07:53:25.499Z,2564.00
2019-03-10T07:54:25.473Z,2728.00
2019-03-10T07:55:25.453Z,2692.00
2019-03-10T07:56:25.461Z,1936.00
2019-03-10T07:57:25.411Z,1528.00
2019-03-10T07:58:25.388Z,1464.00
2019-03-10T07:59:25.370Z,1820.00
2019-03-10T08:00:25.352Z,2092.00
2019-03-10T08:01:25.332Z,2320.00
2019-03-10T08:02:25.335Z,1740.00
2019-03-10T08:03:26.941Z,2116.00
2019-03-10T08:04:25.264Z,3872.00
2019-03-10T08:05:25.259Z,3836.00
2019-03-10T08:06:25.224Z,4344.00
2019-03-10T08:07:25.204Z,3028.00
2019-03-10T08:08:25.172Z,3680.00
2019-03-10T08:09:25.174Z,3108.00
2019-03-10T08:10:25.160Z,2504.00
2019-03-10T08:11:25.112Z,2040.00
2019-03-10T08:12:25.112Z,2888.00
2019-03-10T08:13:25.079Z,2204.00
2019-03-10T08:14:25.052Z,1856.00
2019-03-10T08:15:25.036Z,1496.00
2019-03-10T08:16:25.027Z,1968.00
2019-03-10T08:17:25.008Z,1864.00
2019-03-10T08:18:24.966Z,3324.00
2019-03-10T08:19:24.948Z,3672.00
2019-03-10T08:20:24.928Z,4088.00
2019-03-10T08:21:24.903Z,3564.00
2019-03-10T08:22:24.907Z,3168.00
2019-03-10T08:23:24.865Z,3892.00
2019-03-10T08:24:24.842Z,3544.00
2019-03-10T08:25:24.842Z,2804.00
2019-03-10T08:26:24.803Z,2444.00
2019-03-10T08:27:24.778Z,2680.00
2019-03-10T08:28:24.829Z,2616.00
2019-03-10T08:29:24.741Z,3028.00
2019-03-10T08:30:24.724Z,3208.00
2019-03-10T08:31:24.719Z,3480.00
2019-03-10T08:32:24.680Z,3480.00
2019-03-10T08:33:24.671Z,5088.00
2019-03-10T08:34:24.664Z,6012.00
2019-03-10T08:35:24.636Z,5756.00
2019-03-10T08:36:24.647Z,4576.00
2019-03-10T08:37:24.581Z,4172.00
2019-03-10T08:38:24.554Z,3420.00
2019-03-10T08:39:24.549Z,2964.00
2019-03-10T08:40:24.509Z,3088.00
2019-03-10T08:41:24.493Z,2672.00
2019-03-10T08:42:24.480Z,3148.00
2019-03-10T08:43:24.452Z,4164.00
2019-03-10T08:44:24.447Z,4680.00
2019-03-10T08:45:24.429Z,3800.00
2019-03-10T08:46:24.390Z,3724.00
2019-03-10T08:47:24.370Z,3940.00
2019-03-10T08:48:24.349Z,4660.00
2019-03-10T08:49:24.342Z,6084.00
2019-03-10T08:50:24.319Z,7212.00
2019-03-10T08:51:24.313Z,8092.00
2019-03-10T08:52:24.275Z,6280.00
2019-03-10T08:53:24.257Z,5296.00
2019-03-10T08:54:24.250Z,4560.00
2019-03-10T08:55:24.210Z,4084.00
2019-03-10T08:56:24.205Z,4540.00
2019-03-10T08:57:24.170Z,3932.00
2019-03-10T08:58:24.160Z,4676.00
2019-03-10T08:59:24.128Z,5492.00
2019-03-10T09:00:24.113Z,5540.00
2019-03-10T09:01:24.116Z,6248.00
2019-03-10T09:02:24.068Z,5716.00
2019-03-10T09:03:24.068Z,5736.00
2019-03-10T09:04:24.044Z,6148.00
2019-03-10T09:05:24.022Z,7880.00
2019-03-10T09:06:23.995Z,7264.00
2019-03-10T09:07:23.968Z,6996.00
2019-03-10T09:08:24.013Z,8176.00
2019-03-10T09:09:23.955Z,7456.00
2019-03-10T09:10:23.916Z,7336.00
2019-03-10T09:11:23.935Z,6716.00
2019-03-10T09:12:23.923Z,5968.00
2019-03-10T09:13:24.523Z,7052.00
2019-03-10T09:14:23.839Z,6892.00
2019-03-10T09:15:23.851Z,6692.00
2019-03-10T09:16:23.814Z,6632.00
2019-03-10T09:17:23.775Z,5804.00
2019-03-10T09:18:23.755Z,4640.00
2019-03-10T09:19:23.741Z,5036.00
2019-03-10T09:20:23.721Z,5188.00
2019-03-10T09:21:23.720Z,5728.00
2019-03-10T09:22:23.691Z,6664.00
2019-03-10T09:23:23.686Z,7852.00
2019-03-10T09:24:23.645Z,6100.00
2019-03-10T09:25:23.621Z,7116.00
2019-03-10T09:26:23.608Z,6084.00
2019-03-10T09:27:23.603Z,3920.00
2019-03-10T09:28:23.576Z,4744.00
2019-03-10T09:29:23.550Z,5024.00
2019-03-10T09:30:23.534Z,6592.00
2019-03-10T09:31:23.511Z,8384.00
2019-03-10T09:32:23.492Z,7468.00
2019-03-10T09:33:23.493Z,5788.00
2019-03-10T09:34:23.469Z,3780.00
2019-03-10T09:35:23.432Z,3356.00
2019-03-10T09:36:23.419Z,5116.00
2019-03-10T09:37:23.412Z,5284.00
2019-03-10T09:38:23.395Z,4692.00
2019-03-10T09:39:23.370Z,5148.00
2019-03-10T09:40:23.337Z,5700.00
2019-03-10T09:41:23.324Z,7344.00
2019-03-10T09:42:23.313Z,5824.00
2019-03-10T09:43:23.310Z,5724.00
2019-03-10T09:44:23.267Z,6420.00
2019-03-10T09:45:23.249Z,6292.00
2019-03-10T09:46:23.225Z,6064.00
2019-03-10T09:47:23.210Z,6496.00
2019-03-10T09:48:23.190Z,6092.00
2019-03-10T09:49:23.208Z,4308.00
2019-03-10T09:50:23.147Z,3224.00
2019-03-10T09:51:23.131Z,2888.00
2019-03-10T09:52:23.137Z,4064.00
2019-03-10T09:53:23.091Z,4004.00
2019-03-10T09:54:23.074Z,4096.00
2019-03-10T09:55:23.077Z,4032.00
2019-03-10T09:56:23.063Z,5460.00
2019-03-10T09:57:23.035Z,6104.00
2019-03-10T09:58:23.002Z,7724.00
2019-03-10T09:59:22.997Z,8952.00
2019-03-10T10:00:22.956Z,9276.00
2019-03-10T10:01:22.943Z,7880.00
2019-03-10T10:02:22.947Z,9032.00
2019-03-10T10:03:22.901Z,10308.00
2019-03-10T10:04:22.890Z,9684.00
2019-03-10T10:05:22.864Z,8800.00
2019-03-10T10:06:22.846Z,7784.00
2019-03-10T10:07:22.861Z,9540.00
2019-03-10T10:08:22.825Z,9048.00
2019-03-10T10:09:22.789Z,11264.00
2019-03-10T10:10:22.771Z,12564.00
2019-03-10T10:11:22.787Z,17600.00
2019-03-10T10:12:22.738Z,13460.00
2019-03-10T10:13:22.764Z,14184.00
2019-03-10T10:14:22.709Z,13368.00
2019-03-10T10:15:22.681Z,12684.00
2019-03-10T10:16:22.663Z,11888.00
2019-03-10T10:17:22.647Z,12024.00
2019-03-10T10:18:22.632Z,12116.00
2019-03-10T10:19:23.612Z,10304.00
2019-03-10T10:20:22.586Z,10480.00
2019-03-10T10:21:22.578Z,9956.00
2019-03-10T10:22:22.553Z,9528.00
2019-03-10T10:23:22.555Z,9784.00
2019-03-10T10:24:22.521Z,9892.00
2019-03-10T10:25:22.534Z,10236.00
2019-03-10T10:26:22.492Z,9724.00
2019-03-10T10:27:22.464Z,10288.00
2019-03-10T10:28:22.470Z,10436.00
2019-03-10T10:29:22.433Z,10684.00
2019-03-10T10:30:22.438Z,10520.00
2019-03-10T10:31:22.406Z,8628.00
2019-03-10T10:32:22.384Z,10672.00
2019-03-10T10:33:22.365Z,8988.00
2019-03-10T10:34:22.356Z,10748.00
2019-03-10T10:35:22.339Z,10744.00
2019-03-10T10:36:22.343Z,11816.00
2019-03-10T10:37:22.307Z,10336.00
2019-03-10T10:38:22.287Z,9384.00
2019-03-10T10:39:22.274Z,9912.00
2019-03-10T10:40:22.265Z,10344.00
2019-03-10T10:41:22.255Z,10560.00
2019-03-10T10:42:22.221Z,7420.00
2019-03-10T10:43:22.210Z,9128.00
2019-03-10T10:44:22.193Z,11236.00
2019-03-10T10:45:22.179Z,11228.00
2019-03-10T10:46:22.185Z,10428.00
2019-03-10T10:47:22.158Z,7924.00
2019-03-10T10:48:22.139Z,10996.00
2019-03-10T10:49:22.136Z,7908.00
2019-03-10T10:50:22.107Z,5432.00
2019-03-10T10:51:22.104Z,7316.00
2019-03-10T10:52:22.109Z,6000.00
2019-03-10T10:53:22.067Z,6100.00
2019-03-10T10:54:22.048Z,10664.00
2019-03-10T10:55:22.042Z,8712.00
2019-03-10T10:56:22.027Z,7528.00
2019-03-10T10:57:22.017Z,8264.00
2019-03-10T10:58:22.050Z,8508.00
2019-03-10T10:59:21.968Z,6492.00
2019-03-10T11:00:21.952Z,4172.00
2019-03-10T11:01:21.937Z,3532.00
2019-03-10T11:02:21.927Z,3996.00
2019-03-10T11:03:21.931Z,5008.00
2019-03-10T11:04:21.917Z,5836.00
2019-03-10T11:05:21.870Z,5284.00
2019-03-10T11:06:21.859Z,3992.00
2019-03-10T11:07:21.835Z,4728.00
2019-03-10T11:08:21.836Z,5736.00
2019-03-10T11:09:21.841Z,6144.00
2019-03-10T11:10:21.789Z,6848.00
2019-03-10T11:11:21.775Z,7484.00
2019-03-10T11:12:21.762Z,8128.00
2019-03-10T11:13:21.743Z,8012.00
2019-03-10T11:14:21.723Z,8360.00
2019-03-10T11:15:21.732Z,8796.00
2019-03-10T11:16:21.691Z,8872.00
2019-03-10T11:17:21.672Z,13196.00
2019-03-10T11:18:21.652Z,8644.00
2019-03-10T11:19:21.634Z,16832.00
2019-03-10T11:20:21.617Z,12548.00
2019-03-10T11:21:21.618Z,15424.00
2019-03-10T11:22:21.581Z,15552.00
2019-03-10T11:23:21.558Z,14784.00
2019-03-10T11:24:21.546Z,15136.00
2019-03-10T11:25:21.530Z,12248.00
2019-03-10T11:26:21.537Z,17856.00
2019-03-10T11:27:21.499Z,15840.00
2019-03-10T11:28:21.482Z,21920.00
2019-03-10T11:29:21.473Z,13000.00
2019-03-10T11:30:21.448Z,11616.00
2019-03-10T11:31:21.518Z,11404.00
2019-03-10T11:32:21.441Z,11916.00
2019-03-10T11:33:21.402Z,12972.00
2019-03-10T11:34:21.389Z,14228.00
2019-03-10T11:35:21.374Z,17024.00
2019-03-10T11:36:21.363Z,16032.00
2019-03-10T11:37:21.400Z,14688.00
2019-03-10T11:38:21.341Z,17728.00
2019-03-10T11:39:21.314Z,12048.00
2019-03-10T11:40:21.297Z,11920.00
2019-03-10T11:41:21.282Z,9748.00
2019-03-10T11:42:21.270Z,7036.00
2019-03-10T11:43:22.820Z,12624.00
2019-03-10T11:44:21.238Z,16320.00
2019-03-10T11:45:21.225Z,10640.00
2019-03-10T11:46:21.242Z,13596.00
2019-03-10T11:47:21.194Z,14224.00
2019-03-10T11:48:21.200Z,13756.00
2019-03-10T11:49:21.162Z,17216.00
2019-03-10T11:50:21.153Z,21920.00
2019-03-10T11:51:21.134Z,22560.00
2019-03-10T11:52:21.122Z,8104.00
2019-03-10T11:53:21.125Z,16000.00
2019-03-10T11:54:21.109Z,14464.00
2019-03-10T11:55:21.168Z,10544.00
2019-03-10T11:56:21.061Z,10408.00
2019-03-10T11:57:21.044Z,9644.00
2019-03-10T11:58:21.029Z,10848.00
2019-03-10T11:59:21.044Z,11460.00
2019-03-10T12:00:21.016Z,17472.00
2019-03-10T12:01:20.996Z,12576.00
2019-03-10T12:02:20.983Z,12248.00
2019-03-10T12:03:20.952Z,13928.00
2019-03-10T12:04:20.959Z,12048.00
2019-03-10T12:05:20.946Z,9876.00
2019-03-10T12:06:20.925Z,8320.00
2019-03-10T12:07:20.893Z,9968.00
2019-03-10T12:08:20.882Z,9168.00
2019-03-10T12:09:20.868Z,5884.00
2019-03-10T12:10:21.686Z,12072.00
2019-03-10T12:11:20.872Z,7516.00
2019-03-10T12:12:20.829Z,7016.00
2019-03-10T12:13:20.818Z,8836.00
2019-03-10T12:14:20.791Z,21184.00
2019-03-10T12:15:20.776Z,11200.00
2019-03-10T12:16:20.758Z,9656.00
2019-03-10T12:17:20.763Z,13708.00
2019-03-10T12:18:20.749Z,11532.00
2019-03-10T12:19:20.718Z,10728.00
2019-03-10T12:20:20.696Z,19392.00
2019-03-10T12:21:20.702Z,11580.00
2019-03-10T12:22:20.681Z,15616.00
2019-03-10T12:23:20.656Z,11780.00
2019-03-10T12:24:20.632Z,13088.00
2019-03-10T12:25:20.656Z,7988.00
2019-03-10T12:26:20.621Z,6960.00
2019-03-10T12:27:20.601Z,5748.00
2019-03-10T12:28:20.592Z,7252.00
2019-03-10T12:29:20.552Z,10160.00
2019-03-10T12:30:20.536Z,7868.00
2019-03-10T12:31:20.524Z,6784.00
2019-03-10T12:32:20.572Z,5708.00
2019-03-10T12:33:20.500Z,6960.00
2019-03-10T12:34:20.498Z,6312.00
2019-03-10T12:35:20.462Z,6932.00
2019-03-10T12:36:20.438Z,6384.00
2019-03-10T12:37:20.431Z,4932.00
2019-03-10T12:38:20.408Z,4848.00
2019-03-10T12:39:20.418Z,4412.00